sensor_id;sensor_type;location;lat;lon;timestamp;P1;durP1;ratioP1;P2;durP2;ratioP2
15130;SDS011;7666;50.920;4.628;2023-05-07T00:01:57;5.70;;;3.20;;
15130;SDS011;7666;50.920;4.628;2023-05-07T00:04:43;5.70;;;3.07;;
15130;SDS011;7666;50.920;4.628;2023-05-07T00:07:29;4.80;;;3.10;;
15130;SDS011;7666;50.920;4.628;2023-05-07T00:10:15;5.80;;;3.10;;
15130;SDS011;7666;50.920;4.628;2023-05-07T00:13:01;5.30;;;3.50;;
15130;SDS011;7666;50.920;4.628;2023-05-07T00:15:47;4.47;;;3.90;;
15130;SDS011;7666;50.920;4.628;2023-05-07T00:18:33;4.33;;;3.50;;
15130;SDS011;7666;50.920;4.628;2023-05-07T00:21:19;6.93;;;4.03;;
15130;SDS011;7666;50.920;4.628;2023-05-07T00:24:06;5.30;;;3.50;;
15130;SDS011;7666;50.920;4.628;2023-05-07T00:26:52;6.30;;;4.20;;
15130;SDS011;7666;50.920;4.628;2023-05-07T00:29:38;5.47;;;3.70;;
15130;SDS011;7666;50.920;4.628;2023-05-07T00:32:24;7.57;;;4.47;;
15130;SDS011;7666;50.920;4.628;2023-05-07T00:35:10;5.60;;;4.33;;
15130;SDS011;7666;50.920;4.628;2023-05-07T00:37:57;4.50;;;3.57;;
15130;SDS011;7666;50.920;4.628;2023-05-07T00:40:43;5.07;;;4.00;;
15130;SDS011;7666;50.920;4.628;2023-05-07T00:43:29;8.07;;;4.57;;
15130;SDS011;7666;50.920;4.628;2023-05-07T00:46:15;8.20;;;5.43;;
15130;SDS011;7666;50.920;4.628;2023-05-07T00:49:01;8.60;;;5.57;;
15130;SDS011;7666;50.920;4.628;2023-05-07T00:51:47;6.30;;;5.27;;
15130;SDS011;7666;50.920;4.628;2023-05-07T00:54:35;6.67;;;5.80;;
15130;SDS011;7666;50.920;4.628;2023-05-07T00:57:21;10.10;;;6.30;;
15130;SDS011;7666;50.920;4.628;2023-05-07T01:00:09;7.63;;;6.37;;
15130;SDS011;7666;50.920;4.628;2023-05-07T01:02:57;7.70;;;6.00;;
15130;SDS011;7666;50.920;4.628;2023-05-07T01:05:43;7.20;;;6.00;;
15130;SDS011;7666;50.920;4.628;2023-05-07T01:08:32;5.50;;;5.00;;
15130;SDS011;7666;50.920;4.628;2023-05-07T01:11:20;7.07;;;5.60;;
15130;SDS011;7666;50.920;4.628;2023-05-07T01:14:06;7.03;;;5.30;;
15130;SDS011;7666;50.920;4.628;2023-05-07T01:16:54;7.00;;;5.30;;
15130;SDS011;7666;50.920;4.628;2023-05-07T01:19:40;7.03;;;5.47;;
15130;SDS011;7666;50.920;4.628;2023-05-07T01:22:32;10.57;;;7.20;;
15130;SDS011;7666;50.920;4.628;2023-05-07T01:25:22;9.37;;;6.77;;
15130;SDS011;7666;50.920;4.628;2023-05-07T01:28:09;8.43;;;7.00;;
15130;SDS011;7666;50.920;4.628;2023-05-07T01:30:58;9.57;;;7.37;;
15130;SDS011;7666;50.920;4.628;2023-05-07T01:33:47;10.27;;;6.07;;
15130;SDS011;7666;50.920;4.628;2023-05-07T01:36:35;6.87;;;6.17;;
15130;SDS011;7666;50.920;4.628;2023-05-07T01:39:27;6.83;;;6.07;;
15130;SDS011;7666;50.920;4.628;2023-05-07T01:42:15;6.90;;;6.20;;
15130;SDS011;7666;50.920;4.628;2023-05-07T01:45:01;7.83;;;6.27;;
15130;SDS011;7666;50.920;4.628;2023-05-07T01:47:47;8.90;;;5.90;;
15130;SDS011;7666;50.920;4.628;2023-05-07T01:50:34;7.57;;;6.17;;
15130;SDS011;7666;50.920;4.628;2023-05-07T01:53:21;7.13;;;5.37;;
15130;SDS011;7666;50.920;4.628;2023-05-07T01:56:07;9.30;;;6.37;;
15130;SDS011;7666;50.920;4.628;2023-05-07T01:58:53;9.20;;;5.90;;
15130;SDS011;7666;50.920;4.628;2023-05-07T02:01:39;7.97;;;5.80;;
15130;SDS011;7666;50.920;4.628;2023-05-07T02:04:25;10.10;;;7.03;;
15130;SDS011;7666;50.920;4.628;2023-05-07T02:07:11;11.50;;;8.33;;
15130;SDS011;7666;50.920;4.628;2023-05-07T02:09:57;10.10;;;8.17;;
15130;SDS011;7666;50.920;4.628;2023-05-07T02:12:43;10.80;;;8.17;;
15130;SDS011;7666;50.920;4.628;2023-05-07T02:15:29;10.33;;;8.00;;
15130;SDS011;7666;50.920;4.628;2023-05-07T02:18:16;11.70;;;8.07;;
15130;SDS011;7666;50.920;4.628;2023-05-07T02:21:02;11.67;;;8.57;;
15130;SDS011;7666;50.920;4.628;2023-05-07T02:23:48;11.20;;;8.87;;
15130;SDS011;7666;50.920;4.628;2023-05-07T02:26:34;11.57;;;8.87;;
15130;SDS011;7666;50.920;4.628;2023-05-07T02:29:20;12.73;;;8.97;;
15130;SDS011;7666;50.920;4.628;2023-05-07T02:32:06;10.87;;;9.73;;
15130;SDS011;7666;50.920;4.628;2023-05-07T02:34:52;9.33;;;8.53;;
15130;SDS011;7666;50.920;4.628;2023-05-07T02:37:38;8.43;;;7.50;;
15130;SDS011;7666;50.920;4.628;2023-05-07T02:40:25;10.33;;;8.77;;
15130;SDS011;7666;50.920;4.628;2023-05-07T02:43:10;10.27;;;8.43;;
15130;SDS011;7666;50.920;4.628;2023-05-07T02:46:03;8.77;;;7.87;;
15130;SDS011;7666;50.920;4.628;2023-05-07T02:48:53;9.37;;;8.47;;
15130;SDS011;7666;50.920;4.628;2023-05-07T02:51:39;8.90;;;8.10;;
15130;SDS011;7666;50.920;4.628;2023-05-07T02:54:25;9.17;;;8.27;;
15130;SDS011;7666;50.920;4.628;2023-05-07T02:57:11;9.67;;;8.67;;
15130;SDS011;7666;50.920;4.628;2023-05-07T02:59:57;9.20;;;8.17;;
15130;SDS011;7666;50.920;4.628;2023-05-07T03:02:44;10.73;;;8.03;;
15130;SDS011;7666;50.920;4.628;2023-05-07T03:05:30;9.57;;;7.90;;
15130;SDS011;7666;50.920;4.628;2023-05-07T03:08:17;9.03;;;8.03;;
15130;SDS011;7666;50.920;4.628;2023-05-07T03:11:03;9.83;;;7.53;;
15130;SDS011;7666;50.920;4.628;2023-05-07T03:13:49;8.23;;;6.80;;
15130;SDS011;7666;50.920;4.628;2023-05-07T03:16:35;9.17;;;7.00;;
15130;SDS011;7666;50.920;4.628;2023-05-07T03:19:21;7.50;;;6.67;;
15130;SDS011;7666;50.920;4.628;2023-05-07T03:22:07;7.53;;;6.83;;
15130;SDS011;7666;50.920;4.628;2023-05-07T03:24:53;11.87;;;8.40;;
15130;SDS011;7666;50.920;4.628;2023-05-07T03:27:39;8.00;;;6.73;;
15130;SDS011;7666;50.920;4.628;2023-05-07T03:30:27;8.40;;;7.60;;
15130;SDS011;7666;50.920;4.628;2023-05-07T03:33:13;7.67;;;6.87;;
15130;SDS011;7666;50.920;4.628;2023-05-07T03:35:59;7.00;;;6.30;;
15130;SDS011;7666;50.920;4.628;2023-05-07T03:38:45;7.57;;;6.87;;
15130;SDS011;7666;50.920;4.628;2023-05-07T03:41:32;7.90;;;7.03;;
15130;SDS011;7666;50.920;4.628;2023-05-07T03:44:18;8.13;;;7.33;;
15130;SDS011;7666;50.920;4.628;2023-05-07T03:47:04;8.87;;;7.27;;
15130;SDS011;7666;50.920;4.628;2023-05-07T03:49:50;8.97;;;8.03;;
15130;SDS011;7666;50.920;4.628;2023-05-07T03:52:38;10.03;;;8.57;;
15130;SDS011;7666;50.920;4.628;2023-05-07T03:55:24;10.90;;;8.73;;
15130;SDS011;7666;50.920;4.628;2023-05-07T03:58:10;9.10;;;8.20;;
15130;SDS011;7666;50.920;4.628;2023-05-07T04:00:56;9.70;;;8.27;;
15130;SDS011;7666;50.920;4.628;2023-05-07T04:03:42;8.53;;;7.73;;
15130;SDS011;7666;50.920;4.628;2023-05-07T04:06:28;9.23;;;8.20;;
15130;SDS011;7666;50.920;4.628;2023-05-07T04:09:14;9.50;;;8.17;;
15130;SDS011;7666;50.920;4.628;2023-05-07T04:12:00;8.10;;;7.40;;
15130;SDS011;7666;50.920;4.628;2023-05-07T04:14:46;10.07;;;7.97;;
15130;SDS011;7666;50.920;4.628;2023-05-07T04:17:32;9.77;;;8.33;;
15130;SDS011;7666;50.920;4.628;2023-05-07T04:20:18;9.63;;;8.63;;
15130;SDS011;7666;50.920;4.628;2023-05-07T04:23:04;8.63;;;7.83;;
15130;SDS011;7666;50.920;4.628;2023-05-07T04:25:51;7.90;;;6.60;;
15130;SDS011;7666;50.920;4.628;2023-05-07T04:28:37;8.07;;;6.93;;
15130;SDS011;7666;50.920;4.628;2023-05-07T04:31:23;8.10;;;7.30;;
15130;SDS011;7666;50.920;4.628;2023-05-07T04:34:10;8.50;;;7.67;;
15130;SDS011;7666;50.920;4.628;2023-05-07T04:36:58;9.73;;;8.40;;
15130;SDS011;7666;50.920;4.628;2023-05-07T04:39:44;9.47;;;7.77;;
15130;SDS011;7666;50.920;4.628;2023-05-07T04:42:30;9.37;;;8.47;;
15130;SDS011;7666;50.920;4.628;2023-05-07T04:45:16;9.93;;;8.23;;
15130;SDS011;7666;50.920;4.628;2023-05-07T04:48:04;8.40;;;7.70;;
15130;SDS011;7666;50.920;4.628;2023-05-07T04:50:50;8.77;;;7.80;;
15130;SDS011;7666;50.920;4.628;2023-05-07T04:53:36;11.23;;;10.10;;
15130;SDS011;7666;50.920;4.628;2023-05-07T04:56:23;12.40;;;11.10;;
15130;SDS011;7666;50.920;4.628;2023-05-07T04:59:09;12.80;;;11.47;;
15130;SDS011;7666;50.920;4.628;2023-05-07T05:01:55;14.17;;;12.57;;
15130;SDS011;7666;50.920;4.628;2023-05-07T05:04:41;14.80;;;13.30;;
15130;SDS011;7666;50.920;4.628;2023-05-07T05:07:27;12.90;;;11.67;;
15130;SDS011;7666;50.920;4.628;2023-05-07T05:10:13;14.20;;;12.70;;
15130;SDS011;7666;50.920;4.628;2023-05-07T05:12:59;13.43;;;12.13;;
15130;SDS011;7666;50.920;4.628;2023-05-07T05:15:45;14.13;;;12.83;;
15130;SDS011;7666;50.920;4.628;2023-05-07T05:18:32;12.90;;;11.63;;
15130;SDS011;7666;50.920;4.628;2023-05-07T05:21:18;12.23;;;10.90;;
15130;SDS011;7666;50.920;4.628;2023-05-07T05:24:04;12.17;;;10.90;;
15130;SDS011;7666;50.920;4.628;2023-05-07T05:26:51;12.90;;;11.70;;
15130;SDS011;7666;50.920;4.628;2023-05-07T05:29:38;13.30;;;11.37;;
15130;SDS011;7666;50.920;4.628;2023-05-07T05:32:24;14.20;;;12.80;;
15130;SDS011;7666;50.920;4.628;2023-05-07T05:35:11;12.67;;;11.50;;
15130;SDS011;7666;50.920;4.628;2023-05-07T05:37:57;14.60;;;11.07;;
15130;SDS011;7666;50.920;4.628;2023-05-07T05:40:43;14.93;;;11.80;;
15130;SDS011;7666;50.920;4.628;2023-05-07T05:43:29;12.80;;;11.60;;
15130;SDS011;7666;50.920;4.628;2023-05-07T05:46:15;13.27;;;11.27;;
15130;SDS011;7666;50.920;4.628;2023-05-07T05:49:01;11.60;;;10.50;;
15130;SDS011;7666;50.920;4.628;2023-05-07T05:51:47;12.07;;;10.97;;
15130;SDS011;7666;50.920;4.628;2023-05-07T05:54:33;12.50;;;10.97;;
15130;SDS011;7666;50.920;4.628;2023-05-07T05:57:19;13.77;;;12.23;;
15130;SDS011;7666;50.920;4.628;2023-05-07T06:00:06;10.83;;;9.93;;
15130;SDS011;7666;50.920;4.628;2023-05-07T06:02:53;12.13;;;11.03;;
15130;SDS011;7666;50.920;4.628;2023-05-07T06:05:39;12.17;;;10.10;;
15130;SDS011;7666;50.920;4.628;2023-05-07T06:08:25;11.90;;;9.57;;
15130;SDS011;7666;50.920;4.628;2023-05-07T06:11:14;10.97;;;9.87;;
15130;SDS011;7666;50.920;4.628;2023-05-07T06:14:00;10.50;;;9.50;;
15130;SDS011;7666;50.920;4.628;2023-05-07T06:16:46;10.93;;;9.93;;
15130;SDS011;7666;50.920;4.628;2023-05-07T06:19:32;10.43;;;9.43;;
15130;SDS011;7666;50.920;4.628;2023-05-07T06:22:18;10.23;;;9.33;;
15130;SDS011;7666;50.920;4.628;2023-05-07T06:25:04;11.73;;;10.23;;
15130;SDS011;7666;50.920;4.628;2023-05-07T06:27:51;12.53;;;10.30;;
15130;SDS011;7666;50.920;4.628;2023-05-07T06:30:37;12.70;;;9.20;;
15130;SDS011;7666;50.920;4.628;2023-05-07T06:33:23;9.47;;;8.30;;
15130;SDS011;7666;50.920;4.628;2023-05-07T06:36:09;11.47;;;9.83;;
15130;SDS011;7666;50.920;4.628;2023-05-07T06:38:55;10.70;;;9.60;;
15130;SDS011;7666;50.920;4.628;2023-05-07T06:41:41;11.13;;;9.17;;
15130;SDS011;7666;50.920;4.628;2023-05-07T06:44:27;9.70;;;8.70;;
15130;SDS011;7666;50.920;4.628;2023-05-07T06:47:13;10.00;;;8.97;;
15130;SDS011;7666;50.920;4.628;2023-05-07T06:49:59;11.70;;;8.40;;
15130;SDS011;7666;50.920;4.628;2023-05-07T06:52:45;10.23;;;7.43;;
15130;SDS011;7666;50.920;4.628;2023-05-07T06:55:31;9.07;;;6.87;;
15130;SDS011;7666;50.920;4.628;2023-05-07T06:58:17;9.10;;;6.90;;
15130;SDS011;7666;50.920;4.628;2023-05-07T07:01:03;9.90;;;6.87;;
15130;SDS011;7666;50.920;4.628;2023-05-07T07:03:49;9.63;;;6.67;;
15130;SDS011;7666;50.920;4.628;2023-05-07T07:06:36;10.67;;;6.20;;
15130;SDS011;7666;50.920;4.628;2023-05-07T07:09:22;10.93;;;6.37;;
15130;SDS011;7666;50.920;4.628;2023-05-07T07:12:08;8.80;;;5.53;;
15130;SDS011;7666;50.920;4.628;2023-05-07T07:14:54;7.77;;;5.40;;
15130;SDS011;7666;50.920;4.628;2023-05-07T07:17:40;10.80;;;5.60;;
15130;SDS011;7666;50.920;4.628;2023-05-07T07:20:26;7.40;;;5.47;;
15130;SDS011;7666;50.920;4.628;2023-05-07T07:23:13;8.77;;;5.27;;
15130;SDS011;7666;50.920;4.628;2023-05-07T07:25:59;8.73;;;5.30;;
15130;SDS011;7666;50.920;4.628;2023-05-07T07:28:45;10.57;;;5.23;;
15130;SDS011;7666;50.920;4.628;2023-05-07T07:31:31;11.93;;;5.13;;
15130;SDS011;7666;50.920;4.628;2023-05-07T07:34:17;11.07;;;5.50;;
15130;SDS011;7666;50.920;4.628;2023-05-07T07:37:03;6.33;;;4.70;;
15130;SDS011;7666;50.920;4.628;2023-05-07T07:39:51;8.03;;;5.10;;
15130;SDS011;7666;50.920;4.628;2023-05-07T07:42:37;5.80;;;4.60;;
15130;SDS011;7666;50.920;4.628;2023-05-07T07:45:23;10.10;;;4.73;;
15130;SDS011;7666;50.920;4.628;2023-05-07T07:48:09;9.87;;;5.27;;
15130;SDS011;7666;50.920;4.628;2023-05-07T07:50:55;9.53;;;4.83;;
15130;SDS011;7666;50.920;4.628;2023-05-07T07:53:41;9.70;;;4.77;;
15130;SDS011;7666;50.920;4.628;2023-05-07T07:56:27;10.33;;;5.03;;
15130;SDS011;7666;50.920;4.628;2023-05-07T07:59:13;7.97;;;5.17;;
15130;SDS011;7666;50.920;4.628;2023-05-07T08:02:03;10.33;;;4.87;;
15130;SDS011;7666;50.920;4.628;2023-05-07T08:04:49;5.60;;;4.03;;
15130;SDS011;7666;50.920;4.628;2023-05-07T08:07:35;8.33;;;4.23;;
15130;SDS011;7666;50.920;4.628;2023-05-07T08:10:21;9.47;;;4.50;;
15130;SDS011;7666;50.920;4.628;2023-05-07T08:13:07;10.60;;;4.87;;
15130;SDS011;7666;50.920;4.628;2023-05-07T08:15:53;10.87;;;4.70;;
15130;SDS011;7666;50.920;4.628;2023-05-07T08:18:39;9.27;;;4.13;;
15130;SDS011;7666;50.920;4.628;2023-05-07T08:21:25;9.47;;;3.90;;
15130;SDS011;7666;50.920;4.628;2023-05-07T08:24:11;11.57;;;4.37;;
15130;SDS011;7666;50.920;4.628;2023-05-07T08:26:57;7.90;;;4.17;;
15130;SDS011;7666;50.920;4.628;2023-05-07T08:29:43;6.10;;;4.03;;
15130;SDS011;7666;50.920;4.628;2023-05-07T08:32:32;8.47;;;4.03;;
15130;SDS011;7666;50.920;4.628;2023-05-07T08:35:18;10.13;;;4.10;;
15130;SDS011;7666;50.920;4.628;2023-05-07T08:38:04;11.37;;;4.10;;
15130;SDS011;7666;50.920;4.628;2023-05-07T08:40:50;9.23;;;4.70;;
15130;SDS011;7666;50.920;4.628;2023-05-07T08:43:36;8.53;;;4.37;;
15130;SDS011;7666;50.920;4.628;2023-05-07T08:46:26;7.83;;;3.90;;
15130;SDS011;7666;50.920;4.628;2023-05-07T08:49:17;6.63;;;3.70;;
15130;SDS011;7666;50.920;4.628;2023-05-07T08:52:03;7.83;;;4.10;;
15130;SDS011;7666;50.920;4.628;2023-05-07T08:54:49;6.77;;;3.83;;
15130;SDS011;7666;50.920;4.628;2023-05-07T08:57:35;5.93;;;4.40;;
15130;SDS011;7666;50.920;4.628;2023-05-07T09:00:21;8.27;;;4.33;;
15130;SDS011;7666;50.920;4.628;2023-05-07T09:03:07;8.17;;;4.10;;
15130;SDS011;7666;50.920;4.628;2023-05-07T09:05:53;8.37;;;4.17;;
15130;SDS011;7666;50.920;4.628;2023-05-07T09:08:40;8.70;;;4.20;;
15130;SDS011;7666;50.920;4.628;2023-05-07T09:11:26;7.27;;;3.50;;
15130;SDS011;7666;50.920;4.628;2023-05-07T09:14:12;8.03;;;4.13;;
15130;SDS011;7666;50.920;4.628;2023-05-07T09:16:58;7.97;;;3.87;;
15130;SDS011;7666;50.920;4.628;2023-05-07T09:19:44;7.97;;;3.80;;
15130;SDS011;7666;50.920;4.628;2023-05-07T09:22:31;8.70;;;3.73;;
15130;SDS011;7666;50.920;4.628;2023-05-07T09:25:22;6.27;;;3.97;;
15130;SDS011;7666;50.920;4.628;2023-05-07T09:28:14;5.30;;;3.50;;
15130;SDS011;7666;50.920;4.628;2023-05-07T09:31:00;5.60;;;3.40;;
15130;SDS011;7666;50.920;4.628;2023-05-07T09:33:46;6.67;;;3.43;;
15130;SDS011;7666;50.920;4.628;2023-05-07T09:36:32;6.27;;;3.70;;
15130;SDS011;7666;50.920;4.628;2023-05-07T09:39:18;7.73;;;4.00;;
15130;SDS011;7666;50.920;4.628;2023-05-07T09:42:04;7.87;;;3.90;;
15130;SDS011;7666;50.920;4.628;2023-05-07T09:44:51;7.73;;;3.60;;
15130;SDS011;7666;50.920;4.628;2023-05-07T09:47:38;5.27;;;3.50;;
15130;SDS011;7666;50.920;4.628;2023-05-07T09:50:31;5.90;;;3.80;;
15130;SDS011;7666;50.920;4.628;2023-05-07T09:53:21;5.27;;;3.60;;
15130;SDS011;7666;50.920;4.628;2023-05-07T09:56:08;5.20;;;3.60;;
15130;SDS011;7666;50.920;4.628;2023-05-07T09:58:56;4.77;;;3.90;;
15130;SDS011;7666;50.920;4.628;2023-05-07T10:01:45;5.80;;;3.50;;
15130;SDS011;7666;50.920;4.628;2023-05-07T10:04:31;8.23;;;4.20;;
15130;SDS011;7666;50.920;4.628;2023-05-07T10:07:18;6.13;;;4.00;;
15130;SDS011;7666;50.920;4.628;2023-05-07T10:10:05;7.97;;;4.37;;
15130;SDS011;7666;50.920;4.628;2023-05-07T10:12:52;6.63;;;3.83;;
15130;SDS011;7666;50.920;4.628;2023-05-07T10:15:39;6.47;;;3.77;;
15130;SDS011;7666;50.920;4.628;2023-05-07T10:18:26;5.90;;;3.40;;
15130;SDS011;7666;50.920;4.628;2023-05-07T10:21:22;4.93;;;3.10;;
15130;SDS011;7666;50.920;4.628;2023-05-07T10:24:09;5.57;;;3.40;;
15130;SDS011;7666;50.920;4.628;2023-05-07T10:27:01;12.83;;;3.40;;
15130;SDS011;7666;50.920;4.628;2023-05-07T10:32:47;5.57;;;3.40;;
15130;SDS011;7666;50.920;4.628;2023-05-07T10:35:38;6.03;;;3.50;;
15130;SDS011;7666;50.920;4.628;2023-05-07T10:38:27;6.00;;;3.70;;
15130;SDS011;7666;50.920;4.628;2023-05-07T10:41:13;6.90;;;3.70;;
15130;SDS011;7666;50.920;4.628;2023-05-07T10:44:01;6.23;;;3.90;;
15130;SDS011;7666;50.920;4.628;2023-05-07T10:47:04;12.00;;;4.10;;
15130;SDS011;7666;50.920;4.628;2023-05-07T10:52:36;4.83;;;3.27;;
15130;SDS011;7666;50.920;4.628;2023-05-07T10:55:22;6.60;;;3.00;;
15130;SDS011;7666;50.920;4.628;2023-05-07T10:58:28;5.80;;;2.83;;
15130;SDS011;7666;50.920;4.628;2023-05-07T11:01:15;6.13;;;2.90;;
15130;SDS011;7666;50.920;4.628;2023-05-07T11:04:23;5.13;;;2.83;;
15130;SDS011;7666;50.920;4.628;2023-05-07T11:07:16;8.90;;;3.20;;
15130;SDS011;7666;50.920;4.628;2023-05-07T11:10:09;6.60;;;3.17;;
15130;SDS011;7666;50.920;4.628;2023-05-07T11:12:55;5.43;;;2.80;;
15130;SDS011;7666;50.920;4.628;2023-05-07T11:15:42;5.23;;;3.03;;
15130;SDS011;7666;50.920;4.628;2023-05-07T11:18:46;4.93;;;3.17;;
15130;SDS011;7666;50.920;4.628;2023-05-07T11:24:23;7.07;;;3.13;;
15130;SDS011;7666;50.920;4.628;2023-05-07T11:27:10;5.50;;;2.20;;
15130;SDS011;7666;50.920;4.628;2023-05-07T11:29:57;4.80;;;2.27;;
15130;SDS011;7666;50.920;4.628;2023-05-07T11:32:43;4.80;;;2.57;;
15130;SDS011;7666;50.920;4.628;2023-05-07T11:35:32;5.87;;;2.80;;
15130;SDS011;7666;50.920;4.628;2023-05-07T11:38:19;6.13;;;2.23;;
15130;SDS011;7666;50.920;4.628;2023-05-07T11:41:05;6.47;;;2.07;;
15130;SDS011;7666;50.920;4.628;2023-05-07T11:43:57;5.17;;;2.20;;
15130;SDS011;7666;50.920;4.628;2023-05-07T11:46:44;3.80;;;1.80;;
15130;SDS011;7666;50.920;4.628;2023-05-07T11:49:31;3.77;;;1.90;;
15130;SDS011;7666;50.920;4.628;2023-05-07T11:52:17;3.70;;;1.87;;
15130;SDS011;7666;50.920;4.628;2023-05-07T11:55:04;3.73;;;1.80;;
15130;SDS011;7666;50.920;4.628;2023-05-07T11:57:50;5.03;;;1.83;;
15130;SDS011;7666;50.920;4.628;2023-05-07T12:00:36;3.67;;;2.00;;
15130;SDS011;7666;50.920;4.628;2023-05-07T12:03:22;4.90;;;2.03;;
15130;SDS011;7666;50.920;4.628;2023-05-07T12:06:09;4.33;;;1.73;;
15130;SDS011;7666;50.920;4.628;2023-05-07T12:08:56;4.33;;;2.50;;
15130;SDS011;7666;50.920;4.628;2023-05-07T12:11:45;3.53;;;1.70;;
15130;SDS011;7666;50.920;4.628;2023-05-07T12:14:31;4.10;;;1.67;;
15130;SDS011;7666;50.920;4.628;2023-05-07T12:17:18;4.67;;;2.20;;
15130;SDS011;7666;50.920;4.628;2023-05-07T12:20:04;3.57;;;1.70;;
15130;SDS011;7666;50.920;4.628;2023-05-07T12:22:51;3.40;;;1.43;;
15130;SDS011;7666;50.920;4.628;2023-05-07T12:25:37;5.27;;;1.70;;
15130;SDS011;7666;50.920;4.628;2023-05-07T12:28:25;4.23;;;1.90;;
15130;SDS011;7666;50.920;4.628;2023-05-07T12:31:11;3.73;;;1.87;;
15130;SDS011;7666;50.920;4.628;2023-05-07T12:33:59;3.90;;;1.83;;
15130;SDS011;7666;50.920;4.628;2023-05-07T12:36:46;3.93;;;2.00;;
15130;SDS011;7666;50.920;4.628;2023-05-07T12:39:33;5.40;;;2.03;;
15130;SDS011;7666;50.920;4.628;2023-05-07T12:42:19;3.20;;;1.57;;
15130;SDS011;7666;50.920;4.628;2023-05-07T12:45:11;3.67;;;1.97;;
15130;SDS011;7666;50.920;4.628;2023-05-07T12:48:03;2.67;;;1.90;;
15130;SDS011;7666;50.920;4.628;2023-05-07T12:50:50;3.77;;;1.90;;
15130;SDS011;7666;50.920;4.628;2023-05-07T12:53:39;3.53;;;1.70;;
15130;SDS011;7666;50.920;4.628;2023-05-07T12:56:30;3.53;;;1.80;;
15130;SDS011;7666;50.920;4.628;2023-05-07T12:59:16;4.57;;;2.20;;
15130;SDS011;7666;50.920;4.628;2023-05-07T13:02:02;2.93;;;1.83;;
15130;SDS011;7666;50.920;4.628;2023-05-07T13:04:48;2.00;;;1.57;;
15130;SDS011;7666;50.920;4.628;2023-05-07T13:07:34;5.90;;;2.00;;
15130;SDS011;7666;50.920;4.628;2023-05-07T13:10:22;2.77;;;1.70;;
15130;SDS011;7666;50.920;4.628;2023-05-07T13:13:09;3.47;;;1.83;;
15130;SDS011;7666;50.920;4.628;2023-05-07T13:15:55;6.07;;;1.83;;
15130;SDS011;7666;50.920;4.628;2023-05-07T13:18:41;4.13;;;1.90;;
15130;SDS011;7666;50.920;4.628;2023-05-07T13:21:29;3.93;;;1.70;;
15130;SDS011;7666;50.920;4.628;2023-05-07T13:24:17;5.73;;;1.80;;
15130;SDS011;7666;50.920;4.628;2023-05-07T13:27:03;6.33;;;1.77;;
15130;SDS011;7666;50.920;4.628;2023-05-07T13:29:49;2.63;;;1.50;;
15130;SDS011;7666;50.920;4.628;2023-05-07T13:32:35;3.67;;;1.67;;
15130;SDS011;7666;50.920;4.628;2023-05-07T13:35:21;3.53;;;2.10;;
15130;SDS011;7666;50.920;4.628;2023-05-07T13:38:07;4.60;;;1.70;;
15130;SDS011;7666;50.920;4.628;2023-05-07T13:40:53;5.90;;;2.17;;
15130;SDS011;7666;50.920;4.628;2023-05-07T13:43:39;4.67;;;1.80;;
15130;SDS011;7666;50.920;4.628;2023-05-07T13:46:25;4.53;;;1.97;;
15130;SDS011;7666;50.920;4.628;2023-05-07T13:49:11;4.43;;;1.93;;
15130;SDS011;7666;50.920;4.628;2023-05-07T13:51:58;3.77;;;1.70;;
15130;SDS011;7666;50.920;4.628;2023-05-07T13:54:44;2.37;;;1.60;;
15130;SDS011;7666;50.920;4.628;2023-05-07T13:57:30;4.93;;;1.90;;
15130;SDS011;7666;50.920;4.628;2023-05-07T14:00:16;4.00;;;1.87;;
15130;SDS011;7666;50.920;4.628;2023-05-07T14:03:02;4.90;;;2.23;;
15130;SDS011;7666;50.920;4.628;2023-05-07T14:05:49;4.83;;;2.03;;
15130;SDS011;7666;50.920;4.628;2023-05-07T14:08:35;3.37;;;1.87;;
15130;SDS011;7666;50.920;4.628;2023-05-07T14:11:21;4.40;;;1.80;;
15130;SDS011;7666;50.920;4.628;2023-05-07T14:14:07;3.20;;;1.80;;
15130;SDS011;7666;50.920;4.628;2023-05-07T14:16:55;5.03;;;2.07;;
15130;SDS011;7666;50.920;4.628;2023-05-07T14:19:42;3.43;;;1.90;;
15130;SDS011;7666;50.920;4.628;2023-05-07T14:22:28;2.57;;;1.60;;
15130;SDS011;7666;50.920;4.628;2023-05-07T14:25:14;3.07;;;1.90;;
15130;SDS011;7666;50.920;4.628;2023-05-07T14:28:00;2.80;;;1.60;;
15130;SDS011;7666;50.920;4.628;2023-05-07T14:30:46;3.60;;;1.63;;
15130;SDS011;7666;50.920;4.628;2023-05-07T14:33:32;2.60;;;1.70;;
15130;SDS011;7666;50.920;4.628;2023-05-07T14:36:19;4.77;;;2.13;;
15130;SDS011;7666;50.920;4.628;2023-05-07T14:39:06;3.37;;;2.00;;
15130;SDS011;7666;50.920;4.628;2023-05-07T14:41:52;2.57;;;1.63;;
15130;SDS011;7666;50.920;4.628;2023-05-07T14:44:39;2.63;;;1.60;;
15130;SDS011;7666;50.920;4.628;2023-05-07T14:47:26;2.50;;;1.60;;
15130;SDS011;7666;50.920;4.628;2023-05-07T14:50:12;3.17;;;1.73;;
15130;SDS011;7666;50.920;4.628;2023-05-07T14:52:58;4.10;;;2.20;;
15130;SDS011;7666;50.920;4.628;2023-05-07T14:55:44;4.07;;;2.13;;
15130;SDS011;7666;50.920;4.628;2023-05-07T14:58:30;2.73;;;2.20;;
15130;SDS011;7666;50.920;4.628;2023-05-07T15:01:17;6.20;;;2.23;;
15130;SDS011;7666;50.920;4.628;2023-05-07T15:04:03;3.67;;;2.10;;
15130;SDS011;7666;50.920;4.628;2023-05-07T15:06:50;3.47;;;2.40;;
15130;SDS011;7666;50.920;4.628;2023-05-07T15:09:36;3.47;;;2.43;;
15130;SDS011;7666;50.920;4.628;2023-05-07T15:12:21;3.60;;;2.10;;
15130;SDS011;7666;50.920;4.628;2023-05-07T15:15:08;5.00;;;2.20;;
15130;SDS011;7666;50.920;4.628;2023-05-07T15:17:54;4.70;;;2.30;;
15130;SDS011;7666;50.920;4.628;2023-05-07T15:20:40;4.33;;;2.17;;
15130;SDS011;7666;50.920;4.628;2023-05-07T15:23:27;3.77;;;2.40;;
15130;SDS011;7666;50.920;4.628;2023-05-07T15:26:13;4.63;;;2.60;;
15130;SDS011;7666;50.920;4.628;2023-05-07T15:28:59;2.90;;;2.00;;
15130;SDS011;7666;50.920;4.628;2023-05-07T15:31:45;3.43;;;2.30;;
15130;SDS011;7666;50.920;4.628;2023-05-07T15:34:31;5.07;;;2.63;;
15130;SDS011;7666;50.920;4.628;2023-05-07T15:37:17;4.07;;;2.30;;
15130;SDS011;7666;50.920;4.628;2023-05-07T15:40:03;4.07;;;2.47;;
15130;SDS011;7666;50.920;4.628;2023-05-07T15:42:53;2.83;;;2.20;;
15130;SDS011;7666;50.920;4.628;2023-05-07T15:45:41;4.27;;;2.20;;
15130;SDS011;7666;50.920;4.628;2023-05-07T15:48:28;4.20;;;2.30;;
15130;SDS011;7666;50.920;4.628;2023-05-07T15:51:14;5.13;;;2.17;;
15130;SDS011;7666;50.920;4.628;2023-05-07T15:54:00;4.77;;;2.17;;
15130;SDS011;7666;50.920;4.628;2023-05-07T15:56:46;2.70;;;2.07;;
15130;SDS011;7666;50.920;4.628;2023-05-07T15:59:32;5.53;;;2.63;;
15130;SDS011;7666;50.920;4.628;2023-05-07T16:02:18;4.03;;;2.40;;
15130;SDS011;7666;50.920;4.628;2023-05-07T16:05:05;3.33;;;2.10;;
15130;SDS011;7666;50.920;4.628;2023-05-07T16:07:54;4.27;;;2.30;;
15130;SDS011;7666;50.920;4.628;2023-05-07T16:10:41;3.17;;;2.40;;
15130;SDS011;7666;50.920;4.628;2023-05-07T16:13:27;3.47;;;2.20;;
15130;SDS011;7666;50.920;4.628;2023-05-07T16:16:13;3.77;;;2.57;;
15130;SDS011;7666;50.920;4.628;2023-05-07T16:18:59;5.93;;;2.57;;
15130;SDS011;7666;50.920;4.628;2023-05-07T16:21:45;3.53;;;2.63;;
15130;SDS011;7666;50.920;4.628;2023-05-07T16:24:32;4.03;;;3.07;;
15130;SDS011;7666;50.920;4.628;2023-05-07T16:27:18;4.33;;;2.37;;
15130;SDS011;7666;50.920;4.628;2023-05-07T16:30:04;4.00;;;3.60;;
15130;SDS011;7666;50.920;4.628;2023-05-07T16:32:50;3.93;;;3.50;;
15130;SDS011;7666;50.920;4.628;2023-05-07T16:35:36;4.43;;;4.03;;
15130;SDS011;7666;50.920;4.628;2023-05-07T16:38:22;4.07;;;3.67;;
15130;SDS011;7666;50.920;4.628;2023-05-07T16:41:08;4.90;;;4.23;;
15130;SDS011;7666;50.920;4.628;2023-05-07T16:43:54;4.43;;;4.00;;
15130;SDS011;7666;50.920;4.628;2023-05-07T16:46:42;5.07;;;4.67;;
15130;SDS011;7666;50.920;4.628;2023-05-07T16:49:28;6.77;;;4.70;;
15130;SDS011;7666;50.920;4.628;2023-05-07T16:52:14;6.23;;;4.83;;
15130;SDS011;7666;50.920;4.628;2023-05-07T16:55:00;5.23;;;4.73;;
15130;SDS011;7666;50.920;4.628;2023-05-07T16:57:46;5.33;;;4.83;;
15130;SDS011;7666;50.920;4.628;2023-05-07T17:00:32;6.67;;;5.10;;
15130;SDS011;7666;50.920;4.628;2023-05-07T17:03:18;5.57;;;5.13;;
15130;SDS011;7666;50.920;4.628;2023-05-07T17:06:04;5.83;;;5.33;;